Latest Weather Observations for McCluer Island

IDD60801

Issued at 5:02 pm CST Tuesday 26 May 2015 (issued every 30 minutes, with the page automatically refreshed every 10 minutes)

About weather observations | Map of weather stations | Latest weather observations for NT | Other Formats
Station Details ID: 014274 Name: MCCLUER ISLAND Lat: -11.05 Lon: 132.98 Height: 1.4 m
Data from the previous 72 hours. | See also: Recent months at McCluer Island
Date/Time
CST
Temp
°C
App
Temp
°C
Dew
Point
Rel
Hum
%
Delta-T
°C
Wind Press
QNH
hPa
Press
MSL
hPa
Rain
since 9 am
mm
Dir
 
Spd
km/h
Gust
km/h
Spd
kts
Gust
kts
26/05:00pm 28.3 - 29.0 - - E 35 43 19 23 1012.1 - 0.0
26/04:30pm 28.7 - 29.4 - - E 35 41 19 22 1012.0 - 0.0
26/04:00pm 28.5 - 29.2 - - E 39 46 21 25 1012.1 - 0.0
26/03:30pm 28.5 - 29.2 - - E 43 50 23 27 1012.2 - 0.0
26/03:00pm 28.6 - 29.3 - - E 41 50 22 27 1012.5 1012.5 0.0
26/02:30pm 28.7 - 29.4 - - ESE 43 50 23 27 1012.5 - 0.0
26/02:00pm 29.0 - 29.7 - - ESE 37 44 20 24 1012.9 - 0.0
26/01:30pm 28.8 - 29.5 - - ESE 39 43 21 23 1013.2 - 0.0
26/01:00pm 28.9 - 29.6 - - ESE 39 43 21 23 1013.5 - 0.0
26/12:30pm 28.3 - 29.0 - - ESE 37 43 20 23 1013.9 - 0.0
26/12:00pm 28.4 - 29.1 - - ESE 39 44 21 24 1014.3 1014.3 0.0
26/11:30am 28.3 - 28.8 - - ESE 35 41 19 22 1014.9 - 0.0
26/11:00am 28.6 - 29.1 - - ESE 35 43 19 23 1015.3 - 0.0
26/10:30am 28.6 - 29.1 - - ESE 35 43 19 23 1015.4 - 0.0
26/10:00am 28.4 - 28.9 - - ESE 35 41 19 22 1015.6 - 0.0
26/09:30am 28.2 - 28.7 - - ESE 33 41 18 22 1015.7 - 0.0
26/09:00am 28.3 - 28.8 - - SE 28 37 15 20 1015.6 1015.6 0.0
26/08:30am 27.8 - 28.3 - - SE 32 41 17 22 1015.5 - 0.0
26/08:00am 27.2 - 27.7 - - SE 32 39 17 21 1015.2 - 0.0
26/07:30am 26.4 - 26.9 - - SE 30 41 16 22 1014.6 - 0.0
26/07:00am 26.4 - 26.9 - - SE 30 44 16 24 1014.5 - 0.0
26/06:30am 26.2 - 26.7 - - SE 24 32 13 17 1014.3 - 0.0
26/06:00am 26.3 - 26.8 - - SE 22 32 12 17 1014.1 1014.1 0.0
26/05:30am 26.6 - 27.1 - - SE 26 35 14 19 1014.0 - 0.0
26/05:00am 26.8 - 27.3 - - SE 28 39 15 21 1013.9 - 0.0
26/04:30am 26.7 - 27.2 - - SE 24 30 13 16 1013.7 - 0.0
26/04:00am 26.9 - 27.4 - - SE 30 41 16 22 1013.8 - 0.0
26/03:30am 27.0 - 27.5 - - ESE 32 43 17 23 1013.8 - 0.0
26/03:00am 27.1 - 27.6 - - ESE 35 44 19 24 1013.7 1013.7 0.0
26/02:30am 27.2 - 27.7 - - ESE 35 44 19 24 1013.8 - 0.0
26/02:00am 27.2 - 27.7 - - ESE 35 41 19 22 1013.9 - 0.0
26/01:30am 27.0 - 27.7 - - ESE 32 39 17 21 1014.2 - 0.0
26/01:00am 27.5 - 28.2 - - ESE 32 41 17 22 1014.5 - 0.0
26/12:30am 27.4 - 28.1 - - ESE 35 43 19 23 1014.7 - 0.0
26/12:00am 27.8 - 28.5 - - ESE 33 39 18 21 1014.9 1014.9 0.0
 
Date/Time
CST
Temp
°C
App
Temp
°C
Dew
Point
Rel
Hum
%
Delta-T
°C
Wind Press
QNH
hPa
Press
MSL
hPa
Rain
since 9 am
mm
Dir
 
Spd
km/h
Gust
km/h
Spd
kts
Gust
kts
25/11:30pm 27.7 - 28.4 - - E 28 35 15 19 1015.3 - 0.0
25/11:00pm 28.1 - 28.8 - - E 32 35 17 19 1015.5 - 0.0
25/10:30pm 27.9 - 28.6 - - ESE 30 35 16 19 1015.5 - 0.0
25/10:00pm 28.0 - 28.7 - - E 28 32 15 17 1015.5 - 0.0
25/09:30pm 27.8 - 28.5 - - E 28 32 15 17 1015.4 - 0.0
25/09:00pm 27.8 - 28.5 - - E 28 32 15 17 1015.2 1015.2 0.0
25/08:30pm 27.9 - 28.6 - - E 28 32 15 17 1014.7 - 0.0
25/08:00pm 27.6 - 28.3 - - E 24 28 13 15 1014.4 - 0.0
25/07:30pm 27.7 - 28.4 - - E 26 30 14 16 1014.1 - 0.0
25/07:00pm 27.6 - 28.1 - - E 26 30 14 16 1013.8 - 0.0
25/06:30pm 27.9 - 28.4 - - E 28 33 15 18 1013.6 - 0.0
25/06:00pm 27.7 - 28.2 - - ESE 28 32 15 17 1013.5 1013.5 0.0
25/05:30pm 28.0 - 28.5 - - ESE 28 32 15 17 1013.3 - 0.0
25/05:00pm 28.5 - 29.0 - - ESE 26 32 14 17 1013.1 - 0.0
25/04:30pm 27.8 - 28.3 - - ESE 32 35 17 19 1013.1 - 0.0
25/04:00pm 27.7 - 28.4 - - ESE 32 37 17 20 1013.1 - 0.0
25/03:30pm 27.8 - 28.3 - - ESE 28 32 15 17 1013.1 - 0.0
25/03:00pm 27.9 - 28.4 - - ESE 30 35 16 19 1013.3 1013.3 0.0
25/02:30pm 28.1 - 28.6 - - ESE 30 35 16 19 1013.6 - 0.0
25/02:00pm 28.0 - 28.5 - - ESE 32 35 17 19 1013.9 - 0.0
25/01:30pm 28.6 - 29.1 - - ESE 32 35 17 19 1014.1 - 0.0
25/01:00pm 28.0 - 28.5 - - ESE 30 35 16 19 1014.5 - 0.0
25/12:30pm 27.9 - 28.4 - - ESE 32 37 17 20 1014.8 - 0.0
25/12:00pm 27.7 - 28.2 - - ESE 33 37 18 20 1015.0 1015.0 0.0
25/11:30am 26.9 - 27.4 - - ESE 32 39 17 21 1015.2 - 0.0
25/11:00am 27.1 - 27.6 - - ESE 33 39 18 21 1015.4 - 0.0
25/10:30am 27.5 - 28.0 - - ESE 32 37 17 20 1015.7 - 0.0
25/10:00am 27.0 - 27.5 - - ESE 33 41 18 22 1015.8 - 0.0
25/09:30am 27.5 - 28.0 - - ESE 32 39 17 21 1015.9 - 0.0
25/09:00am 27.4 - 27.9 - - ESE 32 41 17 22 1015.9 1015.9 0.0
25/08:30am 26.7 - 27.2 - - ESE 33 43 18 23 1015.9 - 0.0
25/08:00am 26.3 - 26.8 - - ESE 30 37 16 20 1015.7 - 0.0
25/07:30am 26.0 - 26.5 - - SE 26 33 14 18 1015.2 - 0.0
25/07:00am 25.7 - 26.2 - - SE 22 32 12 17 1014.8 - 0.0
25/06:30am 25.3 - 25.8 - - SE 19 26 10 14 1014.5 - 0.0
25/06:00am 25.6 - 26.1 - - SE 24 32 13 17 1014.1 1014.1 0.0
25/05:30am 26.2 - 26.7 - - ESE 28 37 15 20 1014.0 - 0.0
25/05:00am 26.4 - 26.9 - - SE 28 35 15 19 1013.9 - 0.0
25/04:30am 26.4 - 26.9 - - ESE 30 37 16 20 1013.7 - 0.0
25/04:00am 26.2 - 26.7 - - ESE 28 33 15 18 1013.7 - 0.0
25/03:30am 26.7 - 27.2 - - ESE 32 37 17 20 1013.7 - 0.0
25/03:00am 26.9 - 27.4 - - ESE 30 37 16 20 1013.8 1013.8 0.0
25/02:30am 27.0 - 27.5 - - E 33 37 18 20 1014.0 - 0.0
25/02:00am 27.2 - 27.7 - - E 33 39 18 21 1014.2 - 0.0
25/01:30am 27.2 - 27.7 - - E 35 43 19 23 1014.5 - 0.0
25/01:00am 27.6 - 28.1 - - E 32 37 17 20 1014.8 - 0.0
25/12:30am 27.3 - 27.8 - - E 30 35 16 19 1014.9 - 0.0
25/12:00am 27.5 - 28.0 - - E 33 39 18 21 1014.9 1014.9 0.0
 
Date/Time
CST
Temp
°C
App
Temp
°C
Dew
Point
Rel
Hum
%
Delta-T
°C
Wind Press
QNH
hPa
Press
MSL
hPa
Rain
since 9 am
mm
Dir
 
Spd
km/h
Gust
km/h
Spd
kts
Gust
kts
24/11:30pm 27.4 - 27.9 - - E 30 35 16 19 1014.9 - 0.0
24/11:00pm 27.6 - 28.1 - - E 28 33 15 18 1015.0 - 0.0
24/10:30pm 27.6 - 28.1 - - E 32 35 17 19 1015.0 - 0.0
24/10:00pm 27.5 - 28.0 - - E 28 32 15 17 1014.9 - 0.0
24/09:30pm 27.6 - 28.1 - - E 28 33 15 18 1014.8 - 0.0
24/09:00pm 27.5 - 28.0 - - E 28 32 15 17 1014.6 1014.6 0.0
24/08:30pm 27.0 - 27.5 - - E 28 32 15 17 1014.3 - 0.0
24/08:00pm 27.1 - 27.6 - - E 26 32 14 17 1014.0 - 0.0
24/07:30pm 27.0 - 27.5 - - E 26 32 14 17 1013.6 - 0.0
24/07:00pm 27.0 - 27.5 - - E 30 33 16 18 1013.4 - 0.0
24/06:30pm 26.9 - 27.4 - - E 28 33 15 18 1013.2 - 0.0
24/06:00pm 26.9 - 27.2 - - ESE 26 30 14 16 1013.2 1013.2 0.0
24/05:30pm 27.2 - 27.5 - - ESE 28 32 15 17 1013.1 - 0.0
24/05:00pm 27.4 - 27.7 - - ESE 30 35 16 19 1012.8 - 0.0
24/04:30pm 27.6 - 27.9 - - ESE 30 35 16 19 1012.5 - 0.0
24/04:00pm 27.7 - 28.0 - - ESE 30 35 16 19 1012.5 - 0.0
24/03:30pm 28.0 - 28.3 - - ESE 32 41 17 22 1012.4 - 0.0
24/03:00pm 27.5 - 27.8 - - ESE 30 37 16 20 1012.4 1012.4 0.0
24/02:30pm 28.3 - 28.6 - - ESE 32 39 17 21 1012.4 - 0.0
24/02:00pm 27.9 - 28.2 - - ESE 35 44 19 24 1012.7 - 0.0
24/01:30pm 28.1 - 28.4 - - ESE 33 44 18 24 1013.0 - 0.0
24/01:00pm 28.6 - 28.9 - - ESE 33 43 18 23 1013.3 - 0.0
24/12:30pm 27.8 - 28.1 - - ESE 33 44 18 24 1013.7 - 0.0
24/12:00pm 27.7 - 28.0 - - ESE 33 44 18 24 1014.0 1014.0 0.0
24/11:30am 26.8 - 27.1 - - ESE 37 43 20 23 1014.3 - 0.0
24/11:00am 26.9 - 27.2 - - ESE 39 46 21 25 1014.6 - 0.0
24/10:30am 27.0 - 27.3 - - ESE 37 44 20 24 1014.8 - 0.0
24/10:00am 26.9 - 27.2 - - ESE 35 44 19 24 1014.9 - 0.0
24/09:30am 26.7 - 27.0 - - ESE 37 46 20 25 1014.8 - 0.0
24/09:00am 26.3 - 26.6 - - ESE 39 46 21 25 1014.8 1014.8 0.0
24/08:30am 26.2 - 26.5 - - ESE 33 41 18 22 1014.7 - 0.0
24/08:00am 25.8 - 26.1 - - ESE 32 41 17 22 1014.5 - 0.0
24/07:30am 25.3 - 25.6 - - SE 26 35 14 19 1014.6 - 0.0
24/07:00am 24.9 - 25.2 - - ESE 28 35 15 19 1014.2 - 0.0
24/06:30am 24.9 - 25.2 - - ESE 28 37 15 20 1013.9 - 0.0
24/06:00am 24.4 - 24.7 - - ESE 30 39 16 21 1013.7 1013.7 0.0
24/05:30am 24.3 - 24.8 - - ESE 30 37 16 20 1013.4 - 0.0
24/05:00am 24.5 - 25.0 - - ESE 32 39 17 21 1013.4 - 0.0
24/04:30am 24.7 - 25.2 - - ESE 37 43 20 23 1013.3 - 0.0
24/04:00am 24.6 - 25.1 - - ESE 33 39 18 21 1013.4 - 0.0
24/03:30am 24.8 - 25.3 - - ESE 33 44 18 24 1013.6 - 0.0
24/03:00am 25.4 - 25.9 - - SE 32 43 17 23 1013.6 1013.6 0.0
24/02:30am 25.8 - 26.3 - - ESE 32 39 17 21 1013.6 - 0.0
24/02:00am 26.2 - 26.7 - - ESE 32 41 17 22 1013.6 - 0.0
24/01:30am 26.1 - 26.6 - - ESE 28 35 15 19 1013.8 - 0.0
24/01:00am 26.7 - 27.2 - - ESE 33 39 18 21 1013.9 - 0.0
24/12:30am 26.8 - 27.3 - - ESE 32 39 17 21 1013.9 - 0.0
24/12:00am 27.1 - 27.6 - - ESE 33 39 18 21 1013.9 1013.9 0.0
 
Date/Time
CST
Temp
°C
App
Temp
°C
Dew
Point
Rel
Hum
%
Delta-T
°C
Wind Press
QNH
hPa
Press
MSL
hPa
Rain
since 9 am
mm
Dir
 
Spd
km/h
Gust
km/h
Spd
kts
Gust
kts
23/11:30pm 27.2 - 27.7 - - E 33 37 18 20 1014.2 - 0.0
23/11:00pm 27.3 - 27.8 - - E 33 39 18 21 1014.2 - 0.0
23/10:30pm 27.2 - 27.7 - - E 33 39 18 21 1014.1 - 0.0
23/10:00pm 27.4 - 27.9 - - E 33 39 18 21 1014.0 - 0.0
23/09:30pm 27.6 - 28.1 - - E 33 39 18 21 1013.9 - 0.0
23/09:00pm 27.4 - 27.9 - - E 32 37 17 20 1013.8 1013.8 0.0
23/08:30pm 27.4 - 27.9 - - E 30 35 16 19 1013.6 - 0.0
23/08:00pm 27.2 - 27.7 - - E 32 35 17 19 1013.4 - 0.0
23/07:30pm 27.3 - 27.8 - - E 32 37 17 20 1013.1 - 0.0
23/07:00pm 27.2 - 27.7 - - E 32 37 17 20 1013.1 - 0.0
23/06:30pm 27.1 - 27.6 - - E 33 39 18 21 1012.8 - 0.0
23/06:00pm 27.1 - 27.6 - - E 32 39 17 21 1012.6 1012.6 0.0
23/05:30pm 27.4 - 27.9 - - E 33 41 18 22 1012.5 - 0.0

Other Formats:

Comma delimited format used in spreadsheet applications
http://www.bom.gov.au/fwo/IDD60801/IDD60801.94135.axf

JavaScript Object Notation format (JSON) in row-major order
http://www.bom.gov.au/fwo/IDD60801/IDD60801.94135.json